Terminal Aerodrome Forecast
Issued by NWS

Current Version | Previous Version | Graphics & Text | Print | Product List | Glossary On
Versions: 1 2 3 4 5 6 7 8 9 10 11 12 13 14 15 16 17 18 19 20 21 22 23 24 25 26 27 28 29 30 31 32 33 34 35 36 37 38 39 40 41 42 43 44 45 46 47 48 49 50
000
FTUS41 KRNK 010522
TAFLWB
TAF
KLWB 010522Z 0106/0206 00000KT P6SM OVC100
     FM011000 VRB03KT 6SM BR FEW005 OVC040
     FM011400 13001KT 4SM -RA BR SCT012 OVC020
     FM011800 VRB03KT 6SM -RA SCT025 OVC040
     FM020000 00000KT 4SM BR BKN025=

USA.gov is the U.S. government's official web portal to all federal, state and local government web resources and services.